Time;durP1;ratioP1;P1;durP2;ratioP2;P2;SDS_P1;SDS_P2;PMS_P1;PMS_P2;Temp;Humidity;BMP_temperature;BMP_pressure;BME280_temperature;BME280_humidity;BME280_pressure;Samples;Min_cycle;Max_cycle;Signal;HPM_P1;HPM_P2
2022/01/10 00:01:09;;;;;;;11.23;3.67;;;;;;;2.99;100.00;100255.66;5023749;28;20050;-89
2022/01/10 00:03:35;;;;;;;10.18;5.10;;;;;;;3.01;100.00;100264.31;4995501;28;20256;-88
2022/01/10 00:06:02;;;;;;;6.53;4.20;;;;;;;3.02;100.00;100268.63;5022238;28;20268;-87
2022/01/10 00:08:28;;;;;;;13.13;4.32;;;;;;;3.03;100.00;100274.69;5009906;28;20399;-87
2022/01/10 00:10:55;;;;;;;9.02;4.53;;;;;;;3.03;100.00;100269.53;5022872;28;20041;-88
2022/01/10 00:13:21;;;;;;;15.15;5.95;;;;;;;3.05;100.00;100275.56;5018819;28;20088;-89
2022/01/10 00:15:48;;;;;;;13.38;4.13;;;;;;;3.04;100.00;100282.47;5021947;28;20052;-89
2022/01/10 00:18:14;;;;;;;8.15;3.97;;;;;;;3.02;100.00;100275.53;5000331;28;20567;-88
2022/01/10 00:20:41;;;;;;;13.45;4.20;;;;;;;3.03;100.00;100282.44;5009120;28;20525;-87
2022/01/10 00:23:09;;;;;;;8.80;4.80;;;;;;;3.05;100.00;100284.22;4996981;28;20060;-88
2022/01/10 00:25:36;;;;;;;9.10;4.63;;;;;;;3.08;100.00;100293.75;5006214;28;20119;-88
2022/01/10 00:28:02;;;;;;;8.75;3.92;;;;;;;3.08;100.00;100298.91;5005396;28;20041;-88
2022/01/10 00:30:29;;;;;;;15.13;4.70;;;;;;;3.06;100.00;100291.09;5020040;28;20056;-86
2022/01/10 00:32:55;;;;;;;12.68;4.28;;;;;;;3.06;100.00;100301.44;5011461;28;20122;-87
2022/01/10 00:35:22;;;;;;;8.15;5.00;;;;;;;3.06;100.00;100300.59;5012174;28;20053;-86
2022/01/10 00:37:49;;;;;;;5.93;3.75;;;;;;;3.05;100.00;100299.72;5003801;28;20053;-88
2022/01/10 00:40:17;;;;;;;15.27;4.15;;;;;;;3.05;100.00;100310.06;5017435;28;20060;-87
2022/01/10 00:42:52;;;;;;;11.30;4.65;;;;;;;3.06;100.00;100311.78;5009833;28;20050;-87
2022/01/10 00:45:23;;;;;;;6.72;4.10;;;;;;;3.07;100.00;100316.13;5014602;28;20045;-87
2022/01/10 00:47:50;;;;;;;5.88;4.05;;;;;;;3.09;100.00;100314.44;5002906;28;20053;-87
2022/01/10 00:50:17;;;;;;;9.27;4.82;;;;;;;3.11;100.00;100320.50;5014514;28;20037;-88
2022/01/10 00:52:44;;;;;;;13.50;4.72;;;;;;;3.14;100.00;100330.03;5015057;28;20041;-87
2022/01/10 00:55:12;;;;;;;11.82;4.22;;;;;;;3.17;100.00;100334.38;5013008;28;20515;-88
2022/01/10 00:57:39;;;;;;;9.93;4.72;;;;;;;3.19;100.00;100330.97;5017626;28;20503;-87
2022/01/10 01:00:09;;;;;;;12.90;3.58;;;;;;;3.19;100.00;100338.72;5017515;28;20050;-88
2022/01/10 01:02:36;;;;;;;12.05;3.90;;;;;;;3.18;100.00;100337.00;4988481;28;20513;-88
2022/01/10 01:05:08;;;;;;;8.57;3.47;;;;;;;3.19;100.00;100346.50;4996844;28;20421;-88
2022/01/10 01:07:37;;;;;;;8.73;3.60;;;;;;;3.20;100.00;100356.00;5007776;28;20054;-87
2022/01/10 01:10:43;;;;;;;11.48;3.50;;;;;;;3.21;100.00;100354.31;4983150;28;20053;-89
2022/01/10 01:13:22;;;;;;;15.25;4.30;;;;;;;3.19;100.00;100366.31;4999158;28;20097;-88
2022/01/10 01:16:08;;;;;;;13.57;4.13;;;;;;;3.18;100.00;100374.91;4997217;28;20056;-88
2022/01/10 01:24:15;;;;;;;11.70;3.67;;;;;;;3.10;100.00;100382.56;4979213;28;20037;-87
2022/01/10 01:26:49;;;;;;;9.43;3.95;;;;;;;3.07;100.00;100379.91;5010011;28;20049;-88
2022/01/10 01:29:25;;;;;;;10.02;3.55;;;;;;;3.04;100.00;100385.91;4992763;28;20064;-89
2022/01/10 01:31:53;;;;;;;14.02;4.53;;;;;;;2.99;100.00;100390.13;5007003;28;20053;-88
2022/01/10 01:34:22;;;;;;;6.90;4.20;;;;;;;2.98;100.00;100393.56;5008022;28;20056;-88
2022/01/10 01:36:52;;;;;;;16.95;4.57;;;;;;;2.97;100.00;100395.28;4981150;28;20578;-87
2022/01/10 01:39:23;;;;;;;12.20;4.82;;;;;;;3.00;100.00;100403.91;4993051;28;20228;-86
2022/01/10 01:42:04;;;;;;;11.98;4.68;;;;;;;3.02;100.00;100405.69;4976800;28;20065;-87
2022/01/10 01:44:31;;;;;;;9.55;3.60;;;;;;;3.04;100.00;100414.34;4979278;28;20154;-87
2022/01/10 01:46:58;;;;;;;13.05;4.80;;;;;;;3.05;100.00;100418.69;4994166;28;20111;-91
2022/01/10 01:49:24;;;;;;;12.18;4.57;;;;;;;3.02;100.00;100423.78;5017017;28;20057;-88
2022/01/10 01:51:51;;;;;;;14.15;4.30;;;;;;;2.97;100.00;100423.72;5008102;28;20077;-88
2022/01/10 01:54:20;;;;;;;10.40;4.63;;;;;;;2.94;100.00;100430.53;4996472;28;20512;-87
2022/01/10 01:56:49;;;;;;;15.30;6.07;;;;;;;2.90;100.00;100434.78;4996121;28;20502;-88
2022/01/10 01:59:16;;;;;;;7.13;4.22;;;;;;;2.85;100.00;100443.31;4981195;28;20053;-89
2022/01/10 02:01:45;;;;;;;14.27;4.82;;;;;;;2.77;100.00;100436.25;5010501;28;20045;-87
2022/01/10 02:04:12;;;;;;;12.45;4.80;;;;;;;2.69;100.00;100439.56;5027115;28;20052;-89
2022/01/10 02:06:39;;;;;;;10.65;6.88;;;;;;;2.60;100.00;100435.94;5016256;28;20042;-88
2022/01/10 02:09:05;;;;;;;7.60;4.40;;;;;;;2.59;100.00;100441.94;5013538;28;20080;-88
2022/01/10 02:11:32;;;;;;;14.23;4.22;;;;;;;2.52;100.00;100450.41;4999451;28;20155;-89
2022/01/10 02:14:00;;;;;;;12.73;3.85;;;;;;;2.47;100.00;100458.06;5030122;28;20068;-87
2022/01/10 02:16:40;;;;;;;11.77;5.20;;;;;;;2.43;100.00;100452.81;5016165;28;20112;-89
2022/01/10 02:19:06;;;;;;;13.20;5.40;;;;;;;2.39;100.00;100462.19;4997016;28;20171;-88
2022/01/10 02:21:33;;;;;;;15.68;5.78;;;;;;;2.33;100.00;100467.22;4992944;28;20045;-88
2022/01/10 02:23:59;;;;;;;11.45;6.32;;;;;;;2.32;100.00;100473.22;4989311;28;20497;-88
2022/01/10 02:26:26;;;;;;;9.88;5.22;;;;;;;2.34;100.00;100483.63;4994265;28;20050;-88
2022/01/10 02:28:52;;;;;;;14.68;5.47;;;;;;;2.38;100.00;100491.44;4991834;28;20103;-89
2022/01/10 02:31:19;;;;;;;14.52;5.40;;;;;;;2.45;100.00;100498.50;4985960;28;20068;-89
2022/01/10 02:33:50;;;;;;;16.25;6.47;;;;;;;2.52;100.00;100496.94;5023318;28;20053;-88
2022/01/10 02:36:23;;;;;;;15.00;5.18;;;;;;;2.58;100.00;100498.75;4987351;28;20143;-88
2022/01/10 02:38:56;;;;;;;12.30;5.88;;;;;;;2.63;100.00;100503.19;5011046;28;20099;-89
2022/01/10 02:41:29;;;;;;;10.07;4.95;;;;;;;2.66;100.00;100510.16;5017078;28;20091;-89
2022/01/10 02:43:59;;;;;;;14.60;6.18;;;;;;;2.67;100.00;100508.44;5011353;28;20318;-88
2022/01/10 02:46:26;;;;;;;11.43;5.38;;;;;;;2.65;100.00;100514.44;5007406;28;20394;-89
2022/01/10 02:48:54;;;;;;;10.13;5.65;;;;;;;2.67;100.00;100521.34;4990172;28;20546;-87
2022/01/10 02:51:20;;;;;;;14.45;5.90;;;;;;;2.65;100.00;100524.75;4994171;28;20029;-89
2022/01/10 02:53:47;;;;;;;10.50;6.05;;;;;;;2.67;100.00;100529.09;4985824;28;20050;-88
2022/01/10 02:56:13;;;;;;;14.65;5.70;;;;;;;2.65;100.00;100537.69;4989122;28;22936;-87
2022/01/10 02:58:40;;;;;;;15.63;5.97;;;;;;;2.65;100.00;100544.59;4993309;28;20050;-87
2022/01/10 03:01:07;;;;;;;15.82;5.70;;;;;;;2.60;100.00;100539.31;4989010;28;20053;-87
2022/01/10 03:03:34;;;;;;;19.58;7.88;;;;;;;2.58;100.00;100548.75;4978655;28;20061;-89
2022/01/10 03:06:02;;;;;;;9.68;5.65;;;;;;;2.58;100.00;100550.44;5006250;28;20145;-87
2022/01/10 03:08:31;;;;;;;18.15;6.80;;;;;;;2.58;100.00;100553.03;4996507;28;20063;-89
2022/01/10 03:10:57;;;;;;;13.52;6.07;;;;;;;2.58;100.00;100565.94;4990777;28;20053;-87
2022/01/10 03:13:25;;;;;;;15.25;6.25;;;;;;;2.55;100.00;100558.13;4989897;28;20196;-87
2022/01/10 03:15:52;;;;;;;21.85;6.15;;;;;;;2.53;100.00;100560.69;5005019;28;20045;-88
2022/01/10 03:18:18;;;;;;;11.85;5.60;;;;;;;2.55;100.00;100565.88;5008519;28;20053;-87
2022/01/10 03:20:45;;;;;;;20.85;5.45;;;;;;;2.55;100.00;100576.22;4999729;28;20588;-87
2022/01/10 03:23:11;;;;;;;19.80;6.40;;;;;;;2.56;100.00;100578.84;5030453;28;21558;-88
2022/01/10 03:25:38;;;;;;;11.45;5.85;;;;;;;2.56;100.00;100581.44;5011661;28;20137;-89
2022/01/10 03:28:06;;;;;;;15.77;6.07;;;;;;;2.57;100.00;100587.44;5031991;28;20709;-87
2022/01/10 03:30:34;;;;;;;13.18;6.18;;;;;;;2.60;100.00;100584.97;4994968;28;20100;-88
2022/01/10 03:33:02;;;;;;;14.48;6.28;;;;;;;2.63;100.00;100596.25;4978104;28;20050;-86
2022/01/10 03:35:29;;;;;;;15.95;5.80;;;;;;;2.64;100.00;100597.97;5011413;28;20068;-89
2022/01/10 03:37:55;;;;;;;13.30;5.78;;;;;;;2.67;100.00;100599.75;4992545;28;20061;-88
2022/01/10 03:40:28;;;;;;;10.43;5.72;;;;;;;2.71;100.00;100598.09;4976973;28;20049;-86
2022/01/10 03:42:54;;;;;;;12.23;6.88;;;;;;;2.77;100.00;100611.19;4988074;28;20065;-87
2022/01/10 03:45:21;;;;;;;13.77;5.57;;;;;;;2.82;100.00;100612.16;5002657;28;20056;-87
2022/01/10 03:47:47;;;;;;;15.57;6.60;;;;;;;2.86;100.00;100613.09;4992122;28;20052;-88
2022/01/10 03:50:14;;;;;;;8.23;5.28;;;;;;;2.91;100.00;100621.84;4999295;28;20141;-90
2022/01/10 03:52:42;;;;;;;13.50;6.68;;;;;;;2.96;100.00;100622.81;5006803;28;20821;-89
2022/01/10 03:55:10;;;;;;;12.32;6.00;;;;;;;3.00;100.00;100622.03;4993304;28;20124;-88
2022/01/10 03:57:36;;;;;;;11.07;5.40;;;;;;;3.04;100.00;100629.00;4989150;28;20050;-88
2022/01/10 04:00:07;;;;;;;13.40;5.57;;;;;;;3.05;100.00;100629.88;4977175;28;20052;-89
2022/01/10 04:02:35;;;;;;;13.77;4.80;;;;;;;3.05;100.00;100628.19;5007246;28;20054;-87
2022/01/10 04:05:01;;;;;;;11.35;4.70;;;;;;;3.06;100.00;100642.81;5013414;28;20507;-89
2022/01/10 04:07:28;;;;;;;14.90;7.40;;;;;;;3.07;100.00;100646.31;5025575;28;20056;-89
2022/01/10 04:09:54;;;;;;;8.98;6.38;;;;;;;3.04;100.00;100654.88;4994196;28;20077;-89
2022/01/10 04:12:21;;;;;;;9.50;5.47;;;;;;;3.05;100.00;100666.06;5013285;28;21008;-87
2022/01/10 04:14:48;;;;;;;15.65;6.10;;;;;;;3.04;100.00;100665.22;5007078;28;20053;-88
2022/01/10 04:17:15;;;;;;;12.02;4.93;;;;;;;3.05;100.00;100669.56;5027278;28;20025;-88
2022/01/10 04:19:41;;;;;;;14.30;7.03;;;;;;;3.05;100.00;100676.41;5032162;28;20050;-87
2022/01/10 04:22:08;;;;;;;19.80;7.00;;;;;;;3.02;100.00;100672.06;5025705;28;20073;-86
2022/01/10 04:24:34;;;;;;;17.23;6.00;;;;;;;2.97;100.00;100673.66;5023492;28;20053;-87
2022/01/10 04:27:01;;;;;;;23.52;7.25;;;;;;;2.89;100.00;100685.56;5013257;28;20051;-89
2022/01/10 04:29:28;;;;;;;11.93;5.32;;;;;;;2.84;100.00;100690.59;5027571;28;20049;-88
2022/01/10 04:31:56;;;;;;;23.25;7.78;;;;;;;2.84;100.00;100705.25;5010495;28;20099;-87
2022/01/10 04:34:24;;;;;;;12.18;5.78;;;;;;;2.89;100.00;100701.06;5012599;28;20151;-89
2022/01/10 04:36:53;;;;;;;15.13;7.55;;;;;;;2.91;100.00;100705.44;5011860;28;20595;-87
2022/01/10 04:39:19;;;;;;;14.30;7.43;;;;;;;2.93;100.00;100708.94;5009772;28;20053;-88
2022/01/10 04:41:46;;;;;;;18.92;5.70;;;;;;;2.91;100.00;100715.78;5026301;28;20043;-89
2022/01/10 04:44:12;;;;;;;16.15;6.05;;;;;;;2.88;100.00;100713.13;4996923;28;20053;-88
2022/01/10 04:46:39;;;;;;;21.50;5.75;;;;;;;2.88;100.00;100713.13;5022694;28;20054;-88
2022/01/10 04:49:09;;;;;;;15.43;6.30;;;;;;;2.87;100.00;100720.81;5011937;28;20064;-87
2022/01/10 04:51:36;;;;;;;14.55;6.15;;;;;;;2.86;100.00;100725.13;4988475;28;20049;-86
2022/01/10 04:54:05;;;;;;;18.08;8.05;;;;;;;2.85;100.00;100732.88;5018439;28;20056;-87
2022/01/10 04:56:32;;;;;;;13.63;5.97;;;;;;;2.84;100.00;100747.47;5010884;28;20045;-88
2022/01/10 04:58:59;;;;;;;13.75;5.85;;;;;;;2.84;100.00;100744.91;5001358;28;20087;-87
2022/01/10 05:01:25;;;;;;;18.15;5.50;;;;;;;2.87;100.00;100745.00;5006614;28;20051;-87
2022/01/10 05:03:52;;;;;;;16.15;5.68;;;;;;;2.92;100.00;100747.66;4992317;28;20083;-87
2022/01/10 05:06:19;;;;;;;15.18;6.00;;;;;;;2.94;100.00;100748.59;4990801;28;20053;-86
2022/01/10 05:08:45;;;;;;;14.95;7.13;;;;;;;2.94;100.00;100753.75;4994765;28;21091;-87
2022/01/10 05:11:12;;;;;;;17.60;5.47;;;;;;;2.92;100.00;100761.50;5023091;28;20049;-87
2022/01/10 05:13:39;;;;;;;14.82;7.38;;;;;;;2.88;100.00;100763.94;5009436;28;20056;-86
2022/01/10 05:16:05;;;;;;;14.35;6.88;;;;;;;2.79;100.00;100767.19;5010994;28;20631;-87
2022/01/10 05:18:38;;;;;;;14.23;6.00;;;;;;;2.69;100.00;100771.25;4992666;28;20080;-88
2022/01/10 05:21:04;;;;;;;13.50;6.07;;;;;;;2.57;100.00;100784.75;5013847;28;20050;-86
2022/01/10 05:23:31;;;;;;;15.68;6.70;;;;;;;2.49;100.00;100794.03;5006374;28;23382;-87
2022/01/10 05:25:58;;;;;;;12.45;6.25;;;;;;;2.44;100.00;100796.47;5009987;28;20049;-87
2022/01/10 05:28:24;;;;;;;13.32;6.80;;;;;;;2.42;100.00;100802.44;5010095;28;20053;-87
2022/01/10 05:30:52;;;;;;;14.82;6.90;;;;;;;2.37;100.00;100809.19;5011986;28;20042;-88
2022/01/10 05:33:18;;;;;;;15.85;5.97;;;;;;;2.29;100.00;100812.44;5010028;28;20069;-86
2022/01/10 05:35:45;;;;;;;11.15;5.40;;;;;;;2.24;100.00;100821.78;5026605;28;20409;-87
2022/01/10 05:38:13;;;;;;;19.10;7.35;;;;;;;2.18;100.00;100821.59;5013935;28;20063;-86
2022/01/10 05:40:43;;;;;;;16.25;6.50;;;;;;;2.11;100.00;100830.00;5007876;28;20045;-87
2022/01/10 05:43:10;;;;;;;14.27;7.40;;;;;;;2.01;100.00;100827.97;5013579;28;20049;-87
2022/01/10 05:45:37;;;;;;;12.73;8.07;;;;;;;1.93;100.00;100833.81;4996450;28;20046;-88
2022/01/10 05:48:11;;;;;;;14.70;6.60;;;;;;;1.90;100.00;100840.59;4994195;28;20069;-88
2022/01/10 05:50:40;;;;;;;17.05;7.57;;;;;;;1.89;100.00;100852.63;4995263;28;20054;-88
2022/01/10 05:53:09;;;;;;;24.58;8.52;;;;;;;1.92;100.00;100844.09;4976435;28;20240;-86
2022/01/10 05:55:37;;;;;;;13.80;7.28;;;;;;;1.93;100.00;100857.03;4998410;28;20353;-87
2022/01/10 05:58:05;;;;;;;14.35;8.05;;;;;;;2.00;100.00;100857.25;4980354;28;20196;-88
2022/01/10 06:00:33;;;;;;;18.30;7.63;;;;;;;2.06;100.00;100862.56;4990072;28;20552;-86
2022/01/10 06:02:59;;;;;;;14.98;7.43;;;;;;;2.14;100.00;100871.44;5006875;28;20046;-88
2022/01/10 06:05:30;;;;;;;16.73;8.00;;;;;;;2.20;100.00;100874.16;5006482;28;20136;-86
2022/01/10 06:07:59;;;;;;;17.08;8.45;;;;;;;2.29;100.00;100895.13;5025877;28;20054;-88
2022/01/10 06:10:27;;;;;;;20.88;6.95;;;;;;;2.36;100.00;100884.94;5009660;28;20054;-86
2022/01/10 06:12:54;;;;;;;16.75;7.32;;;;;;;2.45;100.00;100896.41;5005507;28;20068;-87
2022/01/10 06:15:22;;;;;;;18.35;8.18;;;;;;;2.52;100.00;100902.63;5010951;28;20468;-86
2022/01/10 06:17:50;;;;;;;12.20;6.65;;;;;;;2.59;100.00;100908.84;5002892;28;20140;-87
2022/01/10 06:20:21;;;;;;;19.92;8.30;;;;;;;2.65;100.00;100902.13;5010730;28;20045;-87
2022/01/10 06:22:48;;;;;;;17.85;7.38;;;;;;;2.69;100.00;100916.00;4996434;28;20794;-88
2022/01/10 06:25:20;;;;;;;19.05;7.28;;;;;;;2.71;100.00;100914.38;5003842;28;20457;-88
2022/01/10 06:27:47;;;;;;;17.83;8.27;;;;;;;2.72;100.00;100931.59;5011018;28;20425;-85
2022/01/10 06:30:14;;;;;;;19.30;7.70;;;;;;;2.77;100.00;100936.91;5019332;28;20055;-87
2022/01/10 06:32:41;;;;;;;20.27;7.65;;;;;;;2.81;100.00;100946.50;4972336;28;20604;-86
2022/01/10 06:35:08;;;;;;;22.08;8.57;;;;;;;2.86;100.00;100949.22;4990378;28;20046;-86
2022/01/10 06:37:35;;;;;;;19.27;7.60;;;;;;;2.91;100.00;100961.44;4996874;28;20056;-85
2022/01/10 06:40:03;;;;;;;16.90;7.75;;;;;;;2.94;100.00;100958.91;4979262;28;20724;-87
2022/01/10 06:42:30;;;;;;;18.63;8.43;;;;;;;2.96;100.00;100966.75;4989362;28;20268;-86
2022/01/10 06:44:57;;;;;;;19.55;8.48;;;;;;;2.97;100.00;100971.06;4976564;28;20276;-87
2022/01/10 06:47:24;;;;;;;20.27;8.57;;;;;;;2.98;100.00;100975.41;5009396;28;20629;-86
2022/01/10 06:49:50;;;;;;;13.90;7.80;;;;;;;3.00;100.00;100981.50;4990858;28;20416;-87
2022/01/10 06:52:18;;;;;;;14.70;7.45;;;;;;;3.03;100.00;100989.34;4989188;28;20050;-85
2022/01/10 06:54:44;;;;;;;19.52;9.25;;;;;;;3.04;100.00;101000.53;4988828;28;20143;-86
2022/01/10 07:01:10;;;;;;;14.27;7.45;;;;;;;3.06;100.00;101004.06;4965164;28;20160;-86
2022/01/10 07:03:57;;;;;;;23.83;9.40;;;;;;;3.03;100.00;101004.00;4989669;28;20546;-86
2022/01/10 07:06:24;;;;;;;19.45;9.65;;;;;;;2.96;100.00;101021.06;4972974;28;20582;-86
2022/01/10 07:08:51;;;;;;;18.13;7.43;;;;;;;2.91;100.00;101022.63;4955247;28;20054;-86
2022/01/10 07:11:17;;;;;;;23.70;7.88;;;;;;;2.86;100.00;101024.22;4974619;28;20703;-87
2022/01/10 07:13:47;;;;;;;23.50;9.05;;;;;;;2.84;100.00;101037.06;4969920;28;20058;-86
2022/01/10 07:16:13;;;;;;;20.13;7.82;;;;;;;2.86;100.00;101047.47;4989896;28;20128;-86
2022/01/10 07:18:40;;;;;;;16.45;7.57;;;;;;;2.86;100.00;101057.81;4999043;28;20052;-87
2022/01/10 07:21:07;;;;;;;19.42;7.20;;;;;;;2.86;100.00;101063.00;5007116;28;20053;-87
2022/01/10 07:23:33;;;;;;;18.80;7.80;;;;;;;2.86;100.00;101069.03;5009334;28;20063;-87
2022/01/10 07:26:00;;;;;;;21.17;8.43;;;;;;;2.88;100.00;101067.38;4996106;28;20163;-87
2022/01/10 07:28:27;;;;;;;11.57;6.85;;;;;;;2.90;100.00;101076.03;5010083;28;20061;-87
2022/01/10 07:30:53;;;;;;;19.23;8.75;;;;;;;2.91;100.00;101077.78;5011764;28;20056;-86
2022/01/10 07:33:20;;;;;;;16.05;7.63;;;;;;;2.93;100.00;101083.91;5018026;28;20049;-86
2022/01/10 07:35:46;;;;;;;19.95;8.73;;;;;;;2.97;100.00;101085.75;5009845;28;20052;-87
2022/01/10 07:38:13;;;;;;;27.55;8.98;;;;;;;2.99;100.00;101096.13;5011982;28;20049;-87
2022/01/10 07:40:39;;;;;;;16.45;7.70;;;;;;;3.01;100.00;101102.19;5018326;28;20046;-87
2022/01/10 07:43:06;;;;;;;17.05;8.02;;;;;;;3.03;100.00;101104.84;5006964;28;20049;-88
2022/01/10 07:45:33;;;;;;;20.35;8.98;;;;;;;3.04;100.00;101107.50;4990268;28;20128;-87
2022/01/10 07:47:59;;;;;;;21.70;7.22;;;;;;;3.09;100.00;101115.34;5010506;28;20053;-87
2022/01/10 07:50:26;;;;;;;17.05;8.25;;;;;;;3.11;100.00;101118.88;5014392;28;20411;-88
2022/01/10 07:52:53;;;;;;;18.17;7.65;;;;;;;3.13;100.00;101128.44;5017066;28;20045;-86
2022/01/10 07:55:20;;;;;;;16.92;6.65;;;;;;;3.14;100.00;101137.97;5012912;28;20050;-86
2022/01/10 07:57:47;;;;;;;35.30;10.18;;;;;;;3.18;100.00;101131.19;5008583;28;20057;-87
2022/01/10 08:00:14;;;;;;;14.30;7.63;;;;;;;3.21;100.00;101138.16;5010913;28;20192;-87
2022/01/10 08:02:41;;;;;;;15.77;7.07;;;;;;;3.24;100.00;101149.44;5006046;28;20048;-87
2022/01/10 08:05:09;;;;;;;21.77;8.73;;;;;;;3.24;100.00;101149.44;4992186;28;20060;-86
2022/01/10 08:07:37;;;;;;;27.02;8.32;;;;;;;3.25;100.00;101156.38;5022954;28;20413;-86
2022/01/10 08:10:05;;;;;;;24.20;7.95;;;;;;;3.27;100.00;101165.06;5022239;28;20099;-87
2022/01/10 08:12:32;;;;;;;19.55;6.65;;;;;;;3.29;100.00;101162.53;5028301;28;20050;-87
2022/01/10 08:14:58;;;;;;;21.50;7.97;;;;;;;3.30;100.00;101178.09;5011483;28;20412;-86
2022/01/10 08:17:25;;;;;;;27.23;8.77;;;;;;;3.32;100.00;101188.47;5019118;28;20632;-87
2022/01/10 08:19:51;;;;;;;26.05;8.30;;;;;;;3.32;100.00;101180.72;5006264;28;20045;-87
2022/01/10 08:22:18;;;;;;;26.50;10.00;;;;;;;3.35;100.00;101185.09;5010194;28;20052;-87
2022/01/10 08:24:45;;;;;;;17.42;8.68;;;;;;;3.35;100.00;101187.69;5004939;28;20123;-87
2022/01/10 08:27:11;;;;;;;21.15;7.78;;;;;;;3.35;100.00;101198.03;5025806;28;20075;-86
2022/01/10 08:29:38;;;;;;;23.33;9.18;;;;;;;3.35;100.00;101198.94;5015710;28;20064;-86
2022/01/10 08:32:05;;;;;;;21.83;9.20;;;;;;;3.37;100.00;101209.34;5015949;28;20107;-88
2022/01/10 08:34:31;;;;;;;19.83;7.18;;;;;;;3.36;100.00;101208.44;5004416;28;21321;-86
2022/01/10 08:36:58;;;;;;;22.38;7.63;;;;;;;3.38;100.00;101221.44;5007357;28;20050;-86
2022/01/10 08:39:25;;;;;;;16.48;7.15;;;;;;;3.42;100.00;101225.88;5021449;28;20053;-86
2022/01/10 08:41:51;;;;;;;14.27;8.40;;;;;;;3.45;100.00;101223.38;5005323;28;20180;-87
2022/01/10 08:44:21;;;;;;;24.63;9.60;;;;;;;3.48;100.00;101231.22;5003922;28;20058;-87
2022/01/10 08:46:48;;;;;;;18.05;8.88;;;;;;;3.50;100.00;101232.16;5024176;28;20045;-87
2022/01/10 08:49:15;;;;;;;26.67;9.55;;;;;;;3.55;100.00;101234.88;5002163;28;20140;-87
2022/01/10 08:51:42;;;;;;;19.55;7.75;;;;;;;3.57;100.00;101236.69;4994446;28;20049;-87
2022/01/10 08:54:10;;;;;;;18.23;8.07;;;;;;;3.60;100.00;101238.47;4989695;28;20368;-87
2022/01/10 08:56:37;;;;;;;15.70;7.95;;;;;;;3.63;100.00;101246.31;5011533;28;20045;-87
2022/01/10 08:59:06;;;;;;;25.33;8.60;;;;;;;3.66;100.00;101254.16;5012962;28;20054;-86
2022/01/10 09:01:33;;;;;;;16.67;7.70;;;;;;;3.69;100.00;101253.38;5008930;28;20049;-86
2022/01/10 09:04:03;;;;;;;21.50;8.82;;;;;;;3.73;100.00;101260.41;5005397;28;20042;-86
2022/01/10 09:06:29;;;;;;;13.98;8.70;;;;;;;3.77;100.00;101267.44;5007000;28;20045;-87
2022/01/10 09:08:56;;;;;;;19.40;7.85;;;;;;;3.84;100.00;101273.69;5010339;28;20068;-85
2022/01/10 09:11:22;;;;;;;14.60;8.18;;;;;;;3.87;100.00;101273.75;5006885;28;20045;-86
2022/01/10 09:13:48;;;;;;;19.02;7.65;;;;;;;3.86;100.00;101284.94;5005440;28;20046;-86
2022/01/10 09:16:16;;;;;;;18.80;9.13;;;;;;;3.80;100.00;101281.34;5009204;28;20394;-86
2022/01/10 09:18:43;;;;;;;26.73;7.93;;;;;;;3.80;100.00;101283.06;5010838;28;20052;-85
2022/01/10 09:21:10;;;;;;;17.77;8.15;;;;;;;3.78;100.00;101292.50;4999078;28;20046;-87
2022/01/10 09:23:36;;;;;;;19.85;8.73;;;;;;;3.77;100.00;101299.38;5014765;28;20045;-87
2022/01/10 09:26:03;;;;;;;18.00;8.10;;;;;;;3.78;100.00;101303.75;5007634;28;20050;-88
2022/01/10 09:28:30;;;;;;;18.20;8.98;;;;;;;3.89;100.00;101305.78;4997175;28;20060;-87
2022/01/10 09:30:56;;;;;;;21.70;9.25;;;;;;;4.10;100.00;101318.47;5010385;28;20049;-87
2022/01/10 09:33:23;;;;;;;16.70;7.25;;;;;;;4.33;100.00;101316.50;5009126;28;20049;-87
2022/01/10 09:35:49;;;;;;;23.73;9.45;;;;;;;4.52;99.95;101317.84;4991957;28;20530;-87
2022/01/10 09:38:16;;;;;;;16.77;7.50;;;;;;;4.63;99.54;101326.81;5007053;28;20282;-87
2022/01/10 09:40:44;;;;;;;26.27;8.63;;;;;;;4.69;97.96;101328.69;5010706;28;20053;-87
2022/01/10 09:43:11;;;;;;;16.33;8.15;;;;;;;4.67;96.84;101339.84;5009818;28;20060;-86
2022/01/10 09:45:38;;;;;;;16.00;7.70;;;;;;;4.61;97.34;101345.75;5002952;28;20049;-87
2022/01/10 09:48:06;;;;;;;10.85;7.18;;;;;;;4.56;97.81;101342.16;5022817;28;20115;-86
2022/01/10 09:50:33;;;;;;;17.27;7.47;;;;;;;4.49;97.06;101348.91;5023026;28;20049;-87
2022/01/10 09:53:00;;;;;;;18.85;7.30;;;;;;;4.41;97.63;101356.47;5009810;28;20048;-86
2022/01/10 09:55:31;;;;;;;14.35;7.20;;;;;;;4.38;98.05;101353.81;5012998;28;20081;-86
2022/01/10 09:57:58;;;;;;;25.30;8.30;;;;;;;4.35;98.03;101355.44;5003969;28;20144;-87
2022/01/10 10:00:26;;;;;;;19.52;7.10;;;;;;;4.35;98.22;101361.47;5012308;28;20053;-87
2022/01/10 10:02:52;;;;;;;13.43;7.32;;;;;;;4.38;98.61;101365.88;5005231;28;20144;-87
2022/01/10 10:05:20;;;;;;;17.70;7.50;;;;;;;4.43;98.54;101377.25;5009272;28;20879;-88
2022/01/10 10:07:48;;;;;;;16.00;7.40;;;;;;;4.48;98.42;101373.06;5010849;28;20053;-87
2022/01/10 10:10:15;;;;;;;13.68;7.78;;;;;;;4.49;97.71;101380.00;5024274;28;20072;-86
2022/01/10 10:12:47;;;;;;;20.40;8.00;;;;;;;4.49;97.63;101384.34;5006616;28;20045;-88
2022/01/10 10:15:21;;;;;;;18.77;8.23;;;;;;;4.44;97.87;101387.66;5019150;28;20443;-87
2022/01/10 10:17:47;;;;;;;18.77;8.40;;;;;;;4.40;97.45;101391.00;5028198;28;20049;-87
2022/01/10 10:20:20;;;;;;;15.02;8.18;;;;;;;4.34;97.22;101392.53;4996780;28;20064;-87
2022/01/10 10:22:48;;;;;;;17.20;8.13;;;;;;;4.27;97.87;101401.84;5002434;28;20137;-87
2022/01/10 10:25:14;;;;;;;21.70;9.18;;;;;;;4.24;98.53;101409.56;4994421;28;20057;-86
2022/01/10 10:27:44;;;;;;;24.20;9.20;;;;;;;4.21;98.47;101407.75;5010844;28;20045;-87
2022/01/10 10:30:15;;;;;;;21.52;8.45;;;;;;;4.23;98.73;101413.84;5010468;28;20056;-86
2022/01/10 10:32:42;;;;;;;16.98;8.35;;;;;;;4.32;98.52;101418.44;5008851;28;20053;-87
2022/01/10 10:35:10;;;;;;;14.18;7.68;;;;;;;4.47;98.69;101411.09;4989110;28;20040;-87
2022/01/10 10:37:42;;;;;;;20.80;9.45;;;;;;;4.67;98.03;101421.13;5009524;28;20561;-87
2022/01/10 10:40:14;;;;;;;20.17;9.85;;;;;;;4.85;97.29;101425.06;4990706;28;20122;-88
2022/01/10 10:42:43;;;;;;;24.77;9.90;;;;;;;4.96;96.57;101418.44;4990214;28;20052;-86
2022/01/10 10:45:14;;;;;;;21.58;8.45;;;;;;;5.06;95.97;101435.13;5004273;28;20049;-87
2022/01/10 10:47:44;;;;;;;19.48;8.73;;;;;;;5.10;95.60;101427.47;4986236;28;20053;-86
2022/01/10 10:50:12;;;;;;;16.35;8.32;;;;;;;5.12;95.27;101431.00;4974332;28;20067;-86
2022/01/10 10:52:42;;;;;;;15.80;7.97;;;;;;;5.09;94.93;101436.09;4985148;28;20037;-86
2022/01/10 10:55:15;;;;;;;25.05;9.40;;;;;;;5.04;95.13;101437.69;4971715;28;20077;-87
2022/01/10 10:57:45;;;;;;;18.60;8.52;;;;;;;5.03;95.30;101437.66;4986469;28;20128;-86
2022/01/10 11:00:15;;;;;;;23.90;9.85;;;;;;;5.06;95.09;101451.59;4985738;28;20054;-87
2022/01/10 11:02:46;;;;;;;15.88;7.40;;;;;;;5.02;94.67;101443.66;5003130;28;20046;-86
2022/01/10 11:05:12;;;;;;;20.30;10.10;;;;;;;4.86;94.42;101447.56;4983294;28;20155;-87
2022/01/10 11:07:39;;;;;;;20.23;7.97;;;;;;;4.68;95.25;101447.94;5000900;28;20054;-87
2022/01/10 11:10:07;;;;;;;18.73;8.50;;;;;;;4.51;95.83;101455.25;4976986;28;20064;-86
2022/01/10 11:12:38;;;;;;;21.48;10.05;;;;;;;4.37;97.03;101457.41;4982117;28;20048;-86
2022/01/10 11:15:05;;;;;;;20.85;8.77;;;;;;;4.44;97.83;101464.56;4984668;28;20046;-87
2022/01/10 11:17:32;;;;;;;18.15;8.95;;;;;;;4.73;97.62;101465.41;4995070;28;20061;-87
2022/01/10 11:20:09;;;;;;;17.17;9.32;;;;;;;5.14;95.76;101464.78;4968516;28;20501;-87
2022/01/10 11:22:40;;;;;;;19.67;8.75;;;;;;;5.42;93.91;101470.66;4999442;28;20216;-87
2022/01/10 11:25:21;;;;;;;16.75;8.43;;;;;;;5.58;92.91;101470.22;4981852;28;20103;-87
2022/01/10 11:27:48;;;;;;;14.57;8.50;;;;;;;5.65;92.69;101473.84;5000584;28;20050;-87
2022/01/10 11:30:42;;;;;;;17.00;7.97;;;;;;;5.62;92.28;101481.56;4982423;28;20050;-86
2022/01/10 11:33:17;;;;;;;17.40;8.32;;;;;;;5.61;91.46;101480.69;4981979;28;20064;-87